sensor_id;sensor_type;location;lat;lon;timestamp;pressure;altitude;pressure_sealevel;temperature;humidity
80424;BME280;69765;47.668;19.326;2024-03-29T00:01:24;98135.19;;;6.37;100.00
80424;BME280;69765;47.668;19.326;2024-03-29T00:04:25;98153.09;;;6.38;100.00
80424;BME280;69765;47.668;19.326;2024-03-29T00:07:26;98142.03;;;6.38;100.00
80424;BME280;69765;47.668;19.326;2024-03-29T00:10:28;98145.06;;;6.32;100.00
80424;BME280;69765;47.668;19.326;2024-03-29T00:13:29;98148.97;;;6.27;100.00
80424;BME280;69765;47.668;19.326;2024-03-29T00:16:31;98184.25;;;6.23;100.00
80424;BME280;69765;47.668;19.326;2024-03-29T00:19:32;98217.53;;;6.26;100.00
80424;BME280;69765;47.668;19.326;2024-03-29T00:22:33;98216.06;;;6.29;100.00
80424;BME280;69765;47.668;19.326;2024-03-29T00:25:35;98246.88;;;6.34;100.00
80424;BME280;69765;47.668;19.326;2024-03-29T00:28:36;98259.91;;;6.38;100.00
80424;BME280;69765;47.668;19.326;2024-03-29T00:31:38;98276.94;;;6.39;100.00
80424;BME280;69765;47.668;19.326;2024-03-29T00:34:39;98273.06;;;6.45;100.00
80424;BME280;69765;47.668;19.326;2024-03-29T00:37:40;98272.84;;;6.42;100.00
80424;BME280;69765;47.668;19.326;2024-03-29T00:40:42;98273.00;;;6.31;100.00
80424;BME280;69765;47.668;19.326;2024-03-29T00:43:43;98278.75;;;6.29;100.00
80424;BME280;69765;47.668;19.326;2024-03-29T00:46:44;98278.66;;;6.27;100.00
80424;BME280;69765;47.668;19.326;2024-03-29T00:49:45;98278.13;;;6.20;100.00
80424;BME280;69765;47.668;19.326;2024-03-29T00:52:46;98299.81;;;6.14;100.00
80424;BME280;69765;47.668;19.326;2024-03-29T00:55:49;98311.41;;;6.11;100.00
80424;BME280;69765;47.668;19.326;2024-03-29T00:58:50;98315.22;;;6.04;100.00
80424;BME280;69765;47.668;19.326;2024-03-29T01:01:52;98322.09;;;5.94;100.00
80424;BME280;69765;47.668;19.326;2024-03-29T01:04:54;98315.09;;;5.91;100.00
80424;BME280;69765;47.668;19.326;2024-03-29T01:07:55;98311.81;;;5.80;100.00
80424;BME280;69765;47.668;19.326;2024-03-29T01:10:56;98325.53;;;5.71;100.00
80424;BME280;69765;47.668;19.326;2024-03-29T01:13:57;98327.28;;;5.72;100.00
80424;BME280;69765;47.668;19.326;2024-03-29T01:16:59;98336.88;;;5.64;100.00
80424;BME280;69765;47.668;19.326;2024-03-29T01:20:00;98344.09;;;5.58;100.00
80424;BME280;69765;47.668;19.326;2024-03-29T01:23:01;98357.13;;;5.51;100.00
80424;BME280;69765;47.668;19.326;2024-03-29T01:26:02;98359.97;;;5.44;100.00
80424;BME280;69765;47.668;19.326;2024-03-29T01:29:03;98368.28;;;5.41;100.00
80424;BME280;69765;47.668;19.326;2024-03-29T01:32:05;98387.16;;;5.33;100.00
80424;BME280;69765;47.668;19.326;2024-03-29T01:35:07;98389.88;;;5.24;100.00
80424;BME280;69765;47.668;19.326;2024-03-29T01:38:08;98391.31;;;5.09;100.00
80424;BME280;69765;47.668;19.326;2024-03-29T01:41:10;98396.47;;;4.99;100.00
80424;BME280;69765;47.668;19.326;2024-03-29T01:44:11;98407.91;;;4.94;100.00
80424;BME280;69765;47.668;19.326;2024-03-29T01:47:12;98411.53;;;4.85;100.00
80424;BME280;69765;47.668;19.326;2024-03-29T01:50:14;98423.53;;;4.76;100.00
80424;BME280;69765;47.668;19.326;2024-03-29T01:53:18;98426.16;;;4.78;100.00
80424;BME280;69765;47.668;19.326;2024-03-29T01:56:21;98415.38;;;4.80;100.00
80424;BME280;69765;47.668;19.326;2024-03-29T01:59:23;98410.50;;;4.83;100.00
80424;BME280;69765;47.668;19.326;2024-03-29T02:02:24;98415.38;;;4.80;100.00
80424;BME280;69765;47.668;19.326;2024-03-29T02:05:26;98435.97;;;4.73;100.00
80424;BME280;69765;47.668;19.326;2024-03-29T02:08:28;98434.84;;;4.70;100.00
80424;BME280;69765;47.668;19.326;2024-03-29T02:11:29;98441.34;;;4.66;100.00
80424;BME280;69765;47.668;19.326;2024-03-29T02:14:31;98447.69;;;4.61;100.00
80424;BME280;69765;47.668;19.326;2024-03-29T02:17:32;98455.50;;;4.52;100.00
80424;BME280;69765;47.668;19.326;2024-03-29T02:20:34;98466.28;;;4.50;100.00
80424;BME280;69765;47.668;19.326;2024-03-29T02:23:43;98481.78;;;4.43;100.00
80424;BME280;69765;47.668;19.326;2024-03-29T02:26:45;98492.31;;;4.37;100.00
80424;BME280;69765;47.668;19.326;2024-03-29T02:29:48;98513.41;;;4.26;100.00
80424;BME280;69765;47.668;19.326;2024-03-29T02:32:49;98523.94;;;4.20;100.00
80424;BME280;69765;47.668;19.326;2024-03-29T02:35:51;98521.81;;;4.15;100.00
80424;BME280;69765;47.668;19.326;2024-03-29T02:38:52;98536.25;;;4.16;100.00
80424;BME280;69765;47.668;19.326;2024-03-29T02:41:53;98542.72;;;4.12;100.00
80424;BME280;69765;47.668;19.326;2024-03-29T02:44:54;98561.94;;;4.30;100.00
80424;BME280;69765;47.668;19.326;2024-03-29T02:47:56;98565.41;;;4.53;100.00
80424;BME280;69765;47.668;19.326;2024-03-29T02:50:58;98566.00;;;4.60;100.00
80424;BME280;69765;47.668;19.326;2024-03-29T02:53:59;98562.59;;;4.60;100.00
80424;BME280;69765;47.668;19.326;2024-03-29T02:57:00;98577.31;;;4.54;100.00
80424;BME280;69765;47.668;19.326;2024-03-29T03:00:02;98577.59;;;4.57;100.00
80424;BME280;69765;47.668;19.326;2024-03-29T03:03:04;98579.34;;;4.58;100.00
80424;BME280;69765;47.668;19.326;2024-03-29T03:06:05;98591.41;;;4.50;100.00
80424;BME280;69765;47.668;19.326;2024-03-29T03:09:06;98597.28;;;4.39;100.00
80424;BME280;69765;47.668;19.326;2024-03-29T03:12:29;98592.25;;;4.29;100.00
80424;BME280;69765;47.668;19.326;2024-03-29T03:15:30;98588.06;;;4.19;100.00
80424;BME280;69765;47.668;19.326;2024-03-29T03:18:31;98599.50;;;4.14;100.00
80424;BME280;69765;47.668;19.326;2024-03-29T03:21:34;98617.69;;;4.30;100.00
80424;BME280;69765;47.668;19.326;2024-03-29T03:24:36;98640.38;;;4.39;100.00
80424;BME280;69765;47.668;19.326;2024-03-29T03:27:37;98635.94;;;4.36;100.00
80424;BME280;69765;47.668;19.326;2024-03-29T03:30:41;98626.13;;;4.51;100.00
80424;BME280;69765;47.668;19.326;2024-03-29T03:33:42;98632.09;;;4.62;100.00
80424;BME280;69765;47.668;19.326;2024-03-29T03:36:43;98632.94;;;4.73;100.00
80424;BME280;69765;47.668;19.326;2024-03-29T03:39:45;98625.81;;;4.79;100.00
80424;BME280;69765;47.668;19.326;2024-03-29T03:42:46;98630.16;;;4.80;100.00
80424;BME280;69765;47.668;19.326;2024-03-29T03:45:47;98641.44;;;4.73;100.00
80424;BME280;69765;47.668;19.326;2024-03-29T03:48:49;98637.75;;;4.70;100.00
80424;BME280;69765;47.668;19.326;2024-03-29T03:51:50;98636.50;;;4.65;100.00
80424;BME280;69765;47.668;19.326;2024-03-29T03:54:51;98643.59;;;4.69;100.00
80424;BME280;69765;47.668;19.326;2024-03-29T03:57:53;98638.78;;;4.72;100.00
80424;BME280;69765;47.668;19.326;2024-03-29T04:00:54;98652.25;;;4.60;100.00
80424;BME280;69765;47.668;19.326;2024-03-29T04:03:55;98664.31;;;4.53;100.00
80424;BME280;69765;47.668;19.326;2024-03-29T04:06:57;98668.25;;;4.49;100.00
80424;BME280;69765;47.668;19.326;2024-03-29T04:09:58;98664.47;;;4.44;100.00
80424;BME280;69765;47.668;19.326;2024-03-29T04:12:59;98663.06;;;4.27;100.00
80424;BME280;69765;47.668;19.326;2024-03-29T04:16:02;98663.47;;;4.22;100.00
80424;BME280;69765;47.668;19.326;2024-03-29T04:19:03;98678.28;;;4.27;100.00
80424;BME280;69765;47.668;19.326;2024-03-29T04:22:05;98686.91;;;4.40;100.00
80424;BME280;69765;47.668;19.326;2024-03-29T04:25:06;98694.13;;;4.45;100.00
80424;BME280;69765;47.668;19.326;2024-03-29T04:28:08;98691.84;;;4.48;100.00
80424;BME280;69765;47.668;19.326;2024-03-29T04:31:09;98694.75;;;4.53;100.00
80424;BME280;69765;47.668;19.326;2024-03-29T04:34:11;98695.25;;;4.59;100.00
80424;BME280;69765;47.668;19.326;2024-03-29T04:37:13;98702.34;;;4.63;100.00
80424;BME280;69765;47.668;19.326;2024-03-29T04:40:14;98696.88;;;4.69;100.00
80424;BME280;69765;47.668;19.326;2024-03-29T04:43:15;98709.25;;;4.96;100.00
80424;BME280;69765;47.668;19.326;2024-03-29T04:46:16;98709.63;;;5.01;100.00
80424;BME280;69765;47.668;19.326;2024-03-29T04:49:22;98725.06;;;5.14;100.00
80424;BME280;69765;47.668;19.326;2024-03-29T04:52:31;98743.06;;;5.17;100.00
80424;BME280;69765;47.668;19.326;2024-03-29T04:55:32;98757.28;;;5.15;100.00
80424;BME280;69765;47.668;19.326;2024-03-29T04:58:33;98758.50;;;5.30;100.00
80424;BME280;69765;47.668;19.326;2024-03-29T05:01:35;98752.75;;;5.43;100.00
80424;BME280;69765;47.668;19.326;2024-03-29T05:04:36;98760.47;;;5.45;100.00
80424;BME280;69765;47.668;19.326;2024-03-29T05:07:37;98761.56;;;5.26;100.00
80424;BME280;69765;47.668;19.326;2024-03-29T05:10:42;98772.75;;;5.28;100.00
80424;BME280;69765;47.668;19.326;2024-03-29T05:13:43;98777.28;;;5.43;100.00
80424;BME280;69765;47.668;19.326;2024-03-29T05:16:45;98762.75;;;5.74;100.00
80424;BME280;69765;47.668;19.326;2024-03-29T05:19:46;98774.06;;;6.43;100.00
80424;BME280;69765;47.668;19.326;2024-03-29T05:22:47;98766.38;;;6.65;100.00
80424;BME280;69765;47.668;19.326;2024-03-29T05:25:49;98777.41;;;6.87;100.00
80424;BME280;69765;47.668;19.326;2024-03-29T05:28:50;98777.06;;;7.18;100.00
80424;BME280;69765;47.668;19.326;2024-03-29T05:31:51;98774.19;;;7.37;100.00
80424;BME280;69765;47.668;19.326;2024-03-29T05:34:53;98781.06;;;7.50;100.00
80424;BME280;69765;47.668;19.326;2024-03-29T05:37:54;98767.09;;;7.45;100.00
80424;BME280;69765;47.668;19.326;2024-03-29T05:40:55;98766.06;;;7.66;100.00
80424;BME280;69765;47.668;19.326;2024-03-29T05:43:57;98764.53;;;7.56;100.00
80424;BME280;69765;47.668;19.326;2024-03-29T05:46:58;98777.94;;;7.65;100.00
80424;BME280;69765;47.668;19.326;2024-03-29T05:50:00;98773.78;;;7.91;100.00
80424;BME280;69765;47.668;19.326;2024-03-29T05:53:01;98780.34;;;8.24;100.00
80424;BME280;69765;47.668;19.326;2024-03-29T05:56:02;98781.25;;;8.50;98.33
80424;BME280;69765;47.668;19.326;2024-03-29T05:59:03;98778.94;;;9.04;94.22
80424;BME280;69765;47.668;19.326;2024-03-29T06:02:05;98790.91;;;9.45;90.98
80424;BME280;69765;47.668;19.326;2024-03-29T06:05:06;98785.31;;;9.64;89.50
80424;BME280;69765;47.668;19.326;2024-03-29T06:08:08;98790.97;;;9.86;86.85
80424;BME280;69765;47.668;19.326;2024-03-29T06:11:09;98786.66;;;10.40;85.27
80424;BME280;69765;47.668;19.326;2024-03-29T06:14:10;98785.38;;;10.76;82.60
80424;BME280;69765;47.668;19.326;2024-03-29T06:17:11;98795.53;;;10.74;80.02
80424;BME280;69765;47.668;19.326;2024-03-29T06:20:31;98794.66;;;11.33;80.37
80424;BME280;69765;47.668;19.326;2024-03-29T06:23:34;98802.09;;;11.29;71.58
80424;BME280;69765;47.668;19.326;2024-03-29T06:26:35;98795.69;;;11.97;72.50
80424;BME280;69765;47.668;19.326;2024-03-29T06:29:36;98798.19;;;11.96;72.23
80424;BME280;69765;47.668;19.326;2024-03-29T06:32:37;98792.78;;;12.39;74.71
80424;BME280;69765;47.668;19.326;2024-03-29T06:35:39;98805.66;;;11.91;71.58
80424;BME280;69765;47.668;19.326;2024-03-29T06:38:40;98795.50;;;12.58;71.04
80424;BME280;69765;47.668;19.326;2024-03-29T06:41:41;98811.56;;;12.70;68.54
80424;BME280;69765;47.668;19.326;2024-03-29T06:44:43;98818.94;;;12.81;68.13
80424;BME280;69765;47.668;19.326;2024-03-29T06:47:44;98797.66;;;13.69;65.84
80424;BME280;69765;47.668;19.326;2024-03-29T06:50:45;98822.97;;;14.52;64.27
80424;BME280;69765;47.668;19.326;2024-03-29T06:53:48;98816.09;;;15.32;60.29
80424;BME280;69765;47.668;19.326;2024-03-29T06:56:49;98824.91;;;15.37;56.41
80424;BME280;69765;47.668;19.326;2024-03-29T06:59:51;98821.50;;;15.80;56.83
80424;BME280;69765;47.668;19.326;2024-03-29T07:02:52;98816.63;;;15.65;55.55
80424;BME280;69765;47.668;19.326;2024-03-29T07:05:53;98823.84;;;15.53;55.33
80424;BME280;69765;47.668;19.326;2024-03-29T07:08:54;98823.59;;;16.57;57.55
80424;BME280;69765;47.668;19.326;2024-03-29T07:11:55;98831.56;;;17.10;54.27
80424;BME280;69765;47.668;19.326;2024-03-29T07:14:58;98841.50;;;16.06;54.36
80424;BME280;69765;47.668;19.326;2024-03-29T07:18:00;98853.56;;;15.43;54.39
80424;BME280;69765;47.668;19.326;2024-03-29T07:21:04;98850.75;;;15.18;56.14
80424;BME280;69765;47.668;19.326;2024-03-29T07:24:05;98840.06;;;15.92;54.89
80424;BME280;69765;47.668;19.326;2024-03-29T07:27:07;98842.91;;;17.14;52.92
80424;BME280;69765;47.668;19.326;2024-03-29T07:30:08;98845.03;;;17.51;48.72
80424;BME280;69765;47.668;19.326;2024-03-29T07:33:12;98854.19;;;17.41;47.91
80424;BME280;69765;47.668;19.326;2024-03-29T07:36:16;98855.00;;;17.15;47.92
80424;BME280;69765;47.668;19.326;2024-03-29T07:39:17;98859.34;;;16.45;49.45
80424;BME280;69765;47.668;19.326;2024-03-29T07:42:19;98875.81;;;15.81;53.47
80424;BME280;69765;47.668;19.326;2024-03-29T07:45:20;98879.22;;;16.24;51.74
80424;BME280;69765;47.668;19.326;2024-03-29T07:48:22;98886.59;;;16.37;51.51
80424;BME280;69765;47.668;19.326;2024-03-29T07:51:23;98879.84;;;16.85;48.63
80424;BME280;69765;47.668;19.326;2024-03-29T07:54:24;98903.97;;;17.32;47.24
80424;BME280;69765;47.668;19.326;2024-03-29T07:57:26;98892.00;;;18.70;46.25
80424;BME280;69765;47.668;19.326;2024-03-29T08:00:27;98886.47;;;20.58;40.17
80424;BME280;69765;47.668;19.326;2024-03-29T08:03:28;98888.75;;;20.85;38.43
80424;BME280;69765;47.668;19.326;2024-03-29T08:06:29;98883.34;;;21.18;37.06
80424;BME280;69765;47.668;19.326;2024-03-29T08:09:31;98889.81;;;20.95;36.40
80424;BME280;69765;47.668;19.326;2024-03-29T08:12:32;98886.63;;;21.08;36.88
80424;BME280;69765;47.668;19.326;2024-03-29T08:15:33;98872.25;;;21.78;36.67
80424;BME280;69765;47.668;19.326;2024-03-29T08:18:35;98871.00;;;21.55;34.90
80424;BME280;69765;47.668;19.326;2024-03-29T08:21:37;98886.59;;;22.03;34.47
80424;BME280;69765;47.668;19.326;2024-03-29T08:24:38;98881.31;;;22.56;32.96
80424;BME280;69765;47.668;19.326;2024-03-29T08:27:39;98866.38;;;21.40;33.10
80424;BME280;69765;47.668;19.326;2024-03-29T08:30:40;98866.78;;;21.61;33.74
80424;BME280;69765;47.668;19.326;2024-03-29T08:33:41;98865.75;;;22.05;33.93
80424;BME280;69765;47.668;19.326;2024-03-29T08:36:44;98858.19;;;23.64;30.81
80424;BME280;69765;47.668;19.326;2024-03-29T08:39:45;98864.94;;;22.71;32.05
80424;BME280;69765;47.668;19.326;2024-03-29T08:42:46;98871.53;;;22.40;32.14
80424;BME280;69765;47.668;19.326;2024-03-29T08:45:48;98866.78;;;22.78;34.43
80424;BME280;69765;47.668;19.326;2024-03-29T08:48:49;98865.44;;;22.42;32.46
80424;BME280;69765;47.668;19.326;2024-03-29T08:51:50;98872.53;;;22.51;33.13
80424;BME280;69765;47.668;19.326;2024-03-29T08:54:51;98883.75;;;20.94;34.78
80424;BME280;69765;47.668;19.326;2024-03-29T08:57:53;98893.09;;;21.30;35.52
80424;BME280;69765;47.668;19.326;2024-03-29T09:00:55;98863.59;;;21.79;34.69
80424;BME280;69765;47.668;19.326;2024-03-29T09:03:56;98855.78;;;21.79;33.99
80424;BME280;69765;47.668;19.326;2024-03-29T09:06:58;98857.00;;;21.50;35.05
80424;BME280;69765;47.668;19.326;2024-03-29T09:09:59;98860.25;;;20.50;35.63
80424;BME280;69765;47.668;19.326;2024-03-29T09:13:00;98865.97;;;21.18;34.20
80424;BME280;69765;47.668;19.326;2024-03-29T09:16:01;98863.56;;;20.43;35.07
80424;BME280;69765;47.668;19.326;2024-03-29T09:19:03;98858.88;;;19.90;35.03
80424;BME280;69765;47.668;19.326;2024-03-29T09:22:05;98859.31;;;19.73;35.91
80424;BME280;69765;47.668;19.326;2024-03-29T09:25:07;98863.78;;;19.45;37.06
80424;BME280;69765;47.668;19.326;2024-03-29T09:28:12;98870.25;;;18.09;36.44
80424;BME280;69765;47.668;19.326;2024-03-29T09:31:13;98889.28;;;18.67;39.27
80424;BME280;69765;47.668;19.326;2024-03-29T09:34:14;98876.91;;;17.50;38.32
80424;BME280;69765;47.668;19.326;2024-03-29T09:37:16;98881.00;;;17.43;38.36
80424;BME280;69765;47.668;19.326;2024-03-29T09:40:19;98877.09;;;16.58;39.76
80424;BME280;69765;47.668;19.326;2024-03-29T09:43:21;98866.75;;;16.36;41.60
80424;BME280;69765;47.668;19.326;2024-03-29T09:46:25;98862.22;;;16.53;41.45
80424;BME280;69765;47.668;19.326;2024-03-29T09:49:29;98861.69;;;16.61;41.84
80424;BME280;69765;47.668;19.326;2024-03-29T09:52:32;98874.72;;;17.11;40.98
80424;BME280;69765;47.668;19.326;2024-03-29T09:55:36;98858.91;;;17.27;39.91
80424;BME280;69765;47.668;19.326;2024-03-29T09:58:38;98855.81;;;17.90;39.63
80424;BME280;69765;47.668;19.326;2024-03-29T10:01:39;98848.00;;;17.63;39.63
80424;BME280;69765;47.668;19.326;2024-03-29T10:04:42;98840.31;;;17.65;39.96
80424;BME280;69765;47.668;19.326;2024-03-29T10:07:44;98840.41;;;17.42;40.81
80424;BME280;69765;47.668;19.326;2024-03-29T10:10:46;98828.69;;;17.79;40.74
80424;BME280;69765;47.668;19.326;2024-03-29T10:13:48;98841.78;;;17.07;39.76
80424;BME280;69765;47.668;19.326;2024-03-29T10:16:51;98839.44;;;17.13;41.63
80424;BME280;69765;47.668;19.326;2024-03-29T10:19:53;98838.63;;;16.90;41.62
80424;BME280;69765;47.668;19.326;2024-03-29T10:22:55;98822.69;;;17.29;39.51
80424;BME280;69765;47.668;19.326;2024-03-29T10:25:57;98828.09;;;17.09;40.52
80424;BME280;69765;47.668;19.326;2024-03-29T10:29:00;98820.19;;;16.81;41.53
80424;BME280;69765;47.668;19.326;2024-03-29T10:32:02;98829.34;;;16.97;42.79
80424;BME280;69765;47.668;19.326;2024-03-29T10:35:04;98825.66;;;16.66;41.67
80424;BME280;69765;47.668;19.326;2024-03-29T10:38:05;98803.34;;;17.70;41.04
80424;BME280;69765;47.668;19.326;2024-03-29T10:41:07;98817.22;;;19.53;37.38
80424;BME280;69765;47.668;19.326;2024-03-29T10:44:10;98803.78;;;19.69;37.51
80424;BME280;69765;47.668;19.326;2024-03-29T10:47:13;98792.00;;;19.85;36.27
80424;BME280;69765;47.668;19.326;2024-03-29T10:50:19;98793.97;;;19.24;39.09
80424;BME280;69765;47.668;19.326;2024-03-29T10:53:24;98801.22;;;18.12;38.59
80424;BME280;69765;47.668;19.326;2024-03-29T10:56:28;98802.88;;;17.29;41.49
80424;BME280;69765;47.668;19.326;2024-03-29T10:59:44;98806.91;;;17.21;42.58
80424;BME280;69765;47.668;19.326;2024-03-29T11:06:12;98795.25;;;16.60;43.01
80424;BME280;69765;47.668;19.326;2024-03-29T11:09:15;98793.63;;;16.63;43.61
80424;BME280;69765;47.668;19.326;2024-03-29T11:12:19;98785.06;;;17.13;43.04
80424;BME280;69765;47.668;19.326;2024-03-29T11:15:31;98765.66;;;17.53;42.28
80424;BME280;69765;47.668;19.326;2024-03-29T11:18:36;98758.22;;;19.14;39.68
80424;BME280;69765;47.668;19.326;2024-03-29T11:21:38;98749.06;;;19.63;38.95
80424;BME280;69765;47.668;19.326;2024-03-29T11:24:40;98759.19;;;18.84;39.45
80424;BME280;69765;47.668;19.326;2024-03-29T11:27:42;98749.34;;;19.40;38.24
80424;BME280;69765;47.668;19.326;2024-03-29T11:30:47;98746.81;;;20.60;36.70
80424;BME280;69765;47.668;19.326;2024-03-29T11:33:49;98736.59;;;22.36;34.01
80424;BME280;69765;47.668;19.326;2024-03-29T11:36:50;98727.47;;;21.44;35.55
80424;BME280;69765;47.668;19.326;2024-03-29T11:39:54;98732.88;;;19.04;40.18
80424;BME280;69765;47.668;19.326;2024-03-29T11:42:56;98725.25;;;18.77;42.10
80424;BME280;69765;47.668;19.326;2024-03-29T11:45:58;98722.66;;;18.77;42.38
80424;BME280;69765;47.668;19.326;2024-03-29T11:49:00;98728.03;;;18.53;42.03
80424;BME280;69765;47.668;19.326;2024-03-29T11:52:04;98714.53;;;18.64;43.30
80424;BME280;69765;47.668;19.326;2024-03-29T11:55:06;98714.16;;;19.17;41.55
80424;BME280;69765;47.668;19.326;2024-03-29T11:58:08;98700.09;;;21.74;37.97
80424;BME280;69765;47.668;19.326;2024-03-29T12:01:10;98694.63;;;22.19;37.24
80424;BME280;69765;47.668;19.326;2024-03-29T12:04:20;98705.00;;;21.51;39.34
80424;BME280;69765;47.668;19.326;2024-03-29T12:07:21;98686.13;;;20.19;41.38
80424;BME280;69765;47.668;19.326;2024-03-29T12:10:26;98706.72;;;20.50;42.90
80424;BME280;69765;47.668;19.326;2024-03-29T12:13:28;98701.06;;;20.74;42.59
80424;BME280;69765;47.668;19.326;2024-03-29T12:16:30;98710.88;;;19.60;44.32
80424;BME280;69765;47.668;19.326;2024-03-29T12:19:31;98706.75;;;18.66;46.74
80424;BME280;69765;47.668;19.326;2024-03-29T12:22:33;98706.97;;;18.41;48.15
80424;BME280;69765;47.668;19.326;2024-03-29T12:25:36;98715.78;;;17.87;49.27
80424;BME280;69765;47.668;19.326;2024-03-29T12:28:38;98712.09;;;17.52;50.66
80424;BME280;69765;47.668;19.326;2024-03-29T12:31:39;98705.94;;;17.48;52.23
80424;BME280;69765;47.668;19.326;2024-03-29T12:34:42;98703.38;;;17.50;52.28
80424;BME280;69765;47.668;19.326;2024-03-29T12:37:50;98696.63;;;17.55;53.00
80424;BME280;69765;47.668;19.326;2024-03-29T12:40:52;98697.56;;;17.57;52.63
80424;BME280;69765;47.668;19.326;2024-03-29T12:43:54;98698.28;;;17.51;53.45
80424;BME280;69765;47.668;19.326;2024-03-29T12:46:55;98695.28;;;17.95;53.16
80424;BME280;69765;47.668;19.326;2024-03-29T12:49:58;98689.28;;;18.26;52.49
80424;BME280;69765;47.668;19.326;2024-03-29T12:53:02;98686.34;;;18.45;51.36
80424;BME280;69765;47.668;19.326;2024-03-29T12:56:04;98678.63;;;18.48;52.01
80424;BME280;69765;47.668;19.326;2024-03-29T12:59:05;98678.75;;;18.53;51.05
80424;BME280;69765;47.668;19.326;2024-03-29T13:02:06;98672.94;;;18.63;52.33
80424;BME280;69765;47.668;19.326;2024-03-29T13:05:08;98675.78;;;18.39;52.61
80424;BME280;69765;47.668;19.326;2024-03-29T13:08:11;98675.66;;;18.34;52.70
80424;BME280;69765;47.668;19.326;2024-03-29T13:11:13;98661.91;;;18.37;52.96
80424;BME280;69765;47.668;19.326;2024-03-29T13:14:15;98681.44;;;18.56;52.99
80424;BME280;69765;47.668;19.326;2024-03-29T13:17:16;98667.38;;;18.48;53.63
80424;BME280;69765;47.668;19.326;2024-03-29T13:20:18;98669.31;;;18.23;54.07
80424;BME280;69765;47.668;19.326;2024-03-29T13:23:19;98659.91;;;18.27;54.51
80424;BME280;69765;47.668;19.326;2024-03-29T13:26:21;98663.56;;;18.03;55.96
80424;BME280;69765;47.668;19.326;2024-03-29T13:29:22;98669.66;;;18.05;55.90
80424;BME280;69765;47.668;19.326;2024-03-29T13:32:23;98668.50;;;17.94;56.37
80424;BME280;69765;47.668;19.326;2024-03-29T13:35:24;98666.53;;;17.87;56.53
80424;BME280;69765;47.668;19.326;2024-03-29T13:38:26;98656.44;;;17.96;56.75
80424;BME280;69765;47.668;19.326;2024-03-29T13:41:27;98650.63;;;18.03;55.35
80424;BME280;69765;47.668;19.326;2024-03-29T13:44:29;98643.88;;;18.10;56.38
80424;BME280;69765;47.668;19.326;2024-03-29T13:47:36;98647.16;;;18.03;56.44
80424;BME280;69765;47.668;19.326;2024-03-29T13:50:37;98638.13;;;17.90;56.59
80424;BME280;69765;47.668;19.326;2024-03-29T13:53:41;98634.28;;;17.76;57.33
80424;BME280;69765;47.668;19.326;2024-03-29T13:56:43;98623.09;;;17.78;57.50
80424;BME280;69765;47.668;19.326;2024-03-29T13:59:44;98620.78;;;17.87;56.94
80424;BME280;69765;47.668;19.326;2024-03-29T14:02:45;98620.41;;;18.05;55.77
80424;BME280;69765;47.668;19.326;2024-03-29T14:05:47;98610.38;;;18.18;55.97
80424;BME280;69765;47.668;19.326;2024-03-29T14:08:48;98621.22;;;18.03;56.03
80424;BME280;69765;47.668;19.326;2024-03-29T14:11:49;98615.69;;;18.22;56.14
80424;BME280;69765;47.668;19.326;2024-03-29T14:14:53;98607.09;;;18.58;55.50
80424;BME280;69765;47.668;19.326;2024-03-29T14:17:55;98602.91;;;18.63;55.22
80424;BME280;69765;47.668;19.326;2024-03-29T14:20:57;98598.72;;;18.68;55.48
80424;BME280;69765;47.668;19.326;2024-03-29T14:23:58;98605.19;;;18.51;55.45
80424;BME280;69765;47.668;19.326;2024-03-29T14:26:59;98598.94;;;18.43;56.02
80424;BME280;69765;47.668;19.326;2024-03-29T14:30:01;98599.78;;;18.42;56.79
80424;BME280;69765;47.668;19.326;2024-03-29T14:33:02;98604.63;;;18.29;56.66
80424;BME280;69765;47.668;19.326;2024-03-29T14:36:07;98605.69;;;18.36;57.21
80424;BME280;69765;47.668;19.326;2024-03-29T14:39:08;98595.91;;;18.26;57.40
80424;BME280;69765;47.668;19.326;2024-03-29T14:42:10;98600.06;;;18.21;57.25
80424;BME280;69765;47.668;19.326;2024-03-29T14:45:14;98587.47;;;18.34;57.56
80424;BME280;69765;47.668;19.326;2024-03-29T14:48:16;98595.94;;;18.60;57.28
80424;BME280;69765;47.668;19.326;2024-03-29T14:51:17;98584.66;;;18.93;55.55
80424;BME280;69765;47.668;19.326;2024-03-29T14:54:19;98582.81;;;19.27;54.96
80424;BME280;69765;47.668;19.326;2024-03-29T14:57:21;98580.72;;;19.51;53.80
80424;BME280;69765;47.668;19.326;2024-03-29T15:00:23;98578.03;;;19.86;53.06
80424;BME280;69765;47.668;19.326;2024-03-29T15:03:26;98569.38;;;19.87;53.12
80424;BME280;69765;47.668;19.326;2024-03-29T15:06:28;98564.28;;;19.95;51.70
80424;BME280;69765;47.668;19.326;2024-03-29T15:09:30;98566.78;;;19.88;52.01
80424;BME280;69765;47.668;19.326;2024-03-29T15:12:31;98558.28;;;19.97;52.72
80424;BME280;69765;47.668;19.326;2024-03-29T15:15:32;98562.53;;;19.94;53.15
80424;BME280;69765;47.668;19.326;2024-03-29T15:18:37;98577.75;;;19.74;52.66
80424;BME280;69765;47.668;19.326;2024-03-29T15:21:39;98564.38;;;19.57;54.75
80424;BME280;69765;47.668;19.326;2024-03-29T15:24:41;98565.69;;;19.36;53.55
80424;BME280;69765;47.668;19.326;2024-03-29T15:27:42;98568.16;;;19.30;54.00
80424;BME280;69765;47.668;19.326;2024-03-29T15:31:10;98582.00;;;19.29;53.89
80424;BME280;69765;47.668;19.326;2024-03-29T15:34:12;98567.34;;;19.33;53.90
80424;BME280;69765;47.668;19.326;2024-03-29T15:37:13;98568.84;;;19.22;53.95
80424;BME280;69765;47.668;19.326;2024-03-29T15:40:14;98561.06;;;19.23;53.87
80424;BME280;69765;47.668;19.326;2024-03-29T15:43:16;98583.53;;;19.20;53.93
80424;BME280;69765;47.668;19.326;2024-03-29T15:46:17;98571.16;;;19.09;55.50
80424;BME280;69765;47.668;19.326;2024-03-29T15:49:18;98584.88;;;19.04;54.87
80424;BME280;69765;47.668;19.326;2024-03-29T15:52:19;98578.69;;;18.97;55.95
80424;BME280;69765;47.668;19.326;2024-03-29T15:55:20;98570.84;;;18.96;56.42